Time;durP1;ratioP1;P1;durP2;ratioP2;P2;SDS_P1;SDS_P2;PMS_P1;PMS_P2;Temp;Humidity;BMP_temperature;BMP_pressure;BME280_temperature;BME280_humidity;BME280_pressure;Samples;Min_cycle;Max_cycle;Signal;HPM_P1;HPM_P2
2024/02/27 00:00:05;;;;;;;24.83;12.90;;;4.80;99.90;;;;;;5093074;28;20367;-77
2024/02/27 00:02:32;;;;;;;23.77;13.33;;;4.60;99.90;;;;;;5093322;28;20209;-77
2024/02/27 00:04:59;;;;;;;24.80;13.20;;;4.60;1.00;;;;;;5100158;28;20213;-77
2024/02/27 00:07:26;;;;;;;23.03;12.80;;;4.60;1.00;;;;;;5101098;28;20210;-77
2024/02/27 00:09:53;;;;;;;23.47;12.20;;;4.50;58.90;;;;;;5092743;28;20679;-77
2024/02/27 00:12:21;;;;;;;24.90;13.37;;;4.30;99.90;;;;;;5093020;28;20267;-77
2024/02/27 00:14:48;;;;;;;22.10;12.53;;;4.20;1.00;;;;;;5092337;28;20206;-77
2024/02/27 00:17:15;;;;;;;22.10;12.17;;;4.20;1.00;;;;;;5093557;28;20262;-77
2024/02/27 00:19:42;;;;;;;24.57;13.33;;;4.20;99.90;;;;;;5092795;28;20244;-77
2024/02/27 00:22:08;;;;;;;23.23;12.03;;;4.10;1.00;;;;;;5095480;28;20236;-77
2024/02/27 00:24:35;;;;;;;23.27;12.70;;;4.10;1.00;;;;;;5099360;28;20292;-77
2024/02/27 00:27:02;;;;;;;23.87;13.10;;;4.00;1.00;;;;;;5093759;28;20296;-77
2024/02/27 00:29:31;;;;;;;23.43;12.87;;;4.10;1.00;;;;;;5101233;28;20225;-77
2024/02/27 00:31:58;;;;;;;22.27;12.23;;;4.00;1.00;;;;;;5096385;28;20202;-77
2024/02/27 00:34:25;;;;;;;22.57;12.60;;;4.10;51.20;;;;;;5094675;28;20269;-77
2024/02/27 00:36:52;;;;;;;24.73;13.40;;;4.00;1.00;;;;;;5094214;28;20201;-77
2024/02/27 00:39:19;;;;;;;23.37;12.10;;;3.90;1.00;;;;;;5093816;28;20241;-77
2024/02/27 00:41:48;;;;;;;23.00;12.27;;;3.70;1.00;;;;;;5093779;28;20293;-77
2024/02/27 00:44:15;;;;;;;24.07;12.77;;;3.70;99.90;;;;;;5101386;28;20640;-77
2024/02/27 00:46:43;;;;;;;25.60;14.07;;;3.70;99.90;;;;;;5102903;28;20216;-77
2024/02/27 00:49:10;;;;;;;22.80;12.17;;;3.80;99.90;;;;;;5102501;28;20705;-77
2024/02/27 00:51:37;;;;;;;22.80;11.93;;;3.70;99.90;;;;;;5106501;28;20304;-77
2024/02/27 00:54:04;;;;;;;22.83;12.03;;;3.70;99.90;;;;;;5096881;28;20205;-77
2024/02/27 00:56:31;;;;;;;23.00;12.07;;;3.80;99.90;;;;;;5103721;28;20232;-77
2024/02/27 00:58:57;;;;;;;23.37;12.47;;;3.80;99.90;;;;;;5102237;28;20320;-77
2024/02/27 01:01:24;;;;;;;22.03;11.80;;;3.80;99.90;;;;;;5099360;28;20295;-77
2024/02/27 01:03:52;;;;;;;23.57;12.87;;;3.70;99.90;;;;;;5097084;28;20296;-77
2024/02/27 01:06:19;;;;;;;22.23;12.73;;;3.70;99.90;;;;;;5098806;28;20287;-77
2024/02/27 01:08:46;;;;;;;24.43;13.07;;;3.70;99.90;;;;;;5097592;28;20221;-77
2024/02/27 01:11:13;;;;;;;21.13;12.00;;;3.70;99.90;;;;;;5098494;28;20711;-77
2024/02/27 01:13:40;;;;;;;22.37;11.67;;;3.60;99.90;;;;;;5098400;28;20307;-77
2024/02/27 01:16:07;;;;;;;21.73;12.77;;;3.70;99.90;;;;;;5097357;28;20919;-77
2024/02/27 01:18:34;;;;;;;21.17;12.00;;;3.60;99.90;;;;;;5100909;28;20271;-77
2024/02/27 01:21:05;;;;;;;21.93;12.40;;;3.50;99.90;;;;;;5097092;28;20296;-77
2024/02/27 01:23:31;;;;;;;21.20;11.63;;;3.50;99.90;;;;;;5099396;28;20233;-78
2024/02/27 01:25:57;;;;;;;21.80;11.80;;;3.50;99.90;;;;;;5099691;28;20296;-77
2024/02/27 01:28:24;;;;;;;20.77;12.17;;;3.50;99.90;;;;;;5101860;28;20638;-77
2024/02/27 01:30:50;;;;;;;19.93;11.33;;;3.40;99.90;;;;;;5101784;28;20236;-77
2024/02/27 01:33:17;;;;;;;21.97;12.20;;;3.40;99.90;;;;;;5101290;28;20288;-78
2024/02/27 01:35:44;;;;;;;21.67;11.70;;;3.20;99.90;;;;;;5100446;28;20262;-77
2024/02/27 01:38:12;;;;;;;20.87;10.93;;;3.10;99.90;;;;;;5103403;28;20601;-77
2024/02/27 01:40:39;;;;;;;20.27;11.40;;;3.20;99.90;;;;;;5106260;28;20311;-77
2024/02/27 01:43:16;;;;;;;24.13;12.00;;;3.20;99.90;;;;;;5101171;28;20602;-77
2024/02/27 01:45:43;;;;;;;22.37;11.93;;;3.30;99.90;;;;;;5103760;28;20631;-77
2024/02/27 01:48:10;;;;;;;20.93;11.13;;;3.40;99.90;;;;;;5110305;28;20197;-77
2024/02/27 01:50:37;;;;;;;20.53;11.27;;;3.30;99.90;;;;;;5100736;28;20236;-77
2024/02/27 01:53:04;;;;;;;21.67;11.43;;;3.30;99.90;;;;;;5105337;28;20316;-77
2024/02/27 01:55:32;;;;;;;19.77;11.07;;;3.20;99.90;;;;;;5111862;28;20276;-77
2024/02/27 01:57:59;;;;;;;18.93;10.40;;;3.10;99.90;;;;;;5101101;28;20236;-77
2024/02/27 02:00:26;;;;;;;20.20;11.40;;;3.10;99.90;;;;;;5104419;28;20304;-77
2024/02/27 02:02:54;;;;;;;20.53;10.90;;;3.10;99.90;;;;;;5107138;28;20230;-77
2024/02/27 02:05:21;;;;;;;21.33;10.97;;;3.10;99.90;;;;;;5099769;28;20212;-77
2024/02/27 02:07:50;;;;;;;22.07;12.00;;;3.10;99.90;;;;;;5103968;28;20255;-77
2024/02/27 02:10:17;;;;;;;19.53;10.50;;;3.10;99.90;;;;;;5103314;28;20347;-77
2024/02/27 02:12:47;;;;;;;21.47;11.50;;;3.10;99.90;;;;;;5104452;28;20683;-77
2024/02/27 02:15:14;;;;;;;22.27;11.87;;;3.20;99.90;;;;;;5097043;28;20201;-77
2024/02/27 02:17:42;;;;;;;20.43;11.27;;;3.10;99.90;;;;;;5103397;28;20208;-77
2024/02/27 02:20:14;;;;;;;17.97;10.27;;;3.00;99.90;;;;;;5098829;28;20731;-78
2024/02/27 02:22:42;;;;;;;21.97;11.33;;;2.90;99.90;;;;;;5106682;28;20356;-77
2024/02/27 02:25:12;;;;;;;23.30;12.37;;;2.90;99.90;;;;;;5099331;28;20667;-77
2024/02/27 02:27:43;;;;;;;20.80;11.40;;;2.80;99.90;;;;;;5100908;28;20201;-77
2024/02/27 02:30:11;;;;;;;21.00;10.77;;;2.90;99.90;;;;;;5101148;28;20225;-77
2024/02/27 02:32:47;;;;;;;20.57;11.10;;;2.90;99.90;;;;;;5099178;28;20209;-77
2024/02/27 02:35:15;;;;;;;22.10;12.20;;;2.90;99.90;;;;;;5100105;28;20208;-77
2024/02/27 02:37:47;;;;;;;20.57;10.67;;;2.90;99.90;;;;;;5100916;28;20206;-77
2024/02/27 02:40:14;;;;;;;20.00;10.67;;;2.80;99.90;;;;;;5103726;28;20223;-77
2024/02/27 02:42:41;;;;;;;18.73;10.23;;;2.70;99.90;;;;;;5099515;28;20280;-77
2024/02/27 02:45:08;;;;;;;20.50;11.23;;;2.70;99.90;;;;;;5101010;28;20248;-77
2024/02/27 02:47:35;;;;;;;22.33;11.10;;;2.70;99.90;;;;;;5102299;28;20205;-77
2024/02/27 02:50:02;;;;;;;23.50;11.77;;;2.60;99.90;;;;;;5107389;28;20308;-77
2024/02/27 02:52:30;;;;;;;23.10;12.70;;;2.60;99.90;;;;;;5103319;28;20641;-77
2024/02/27 02:54:57;;;;;;;21.63;11.70;;;2.50;99.90;;;;;;5104200;28;20211;-77
2024/02/27 02:57:24;;;;;;;22.13;11.60;;;2.50;99.90;;;;;;5104069;28;20237;-77
2024/02/27 02:59:51;;;;;;;20.83;10.73;;;2.50;99.90;;;;;;5099772;28;20261;-77
2024/02/27 03:02:18;;;;;;;21.80;12.13;;;2.50;99.90;;;;;;5105226;27;20204;-77
2024/02/27 03:04:45;;;;;;;20.80;10.77;;;2.50;99.90;;;;;;5099128;28;20625;-77
2024/02/27 03:07:11;;;;;;;20.87;11.30;;;2.50;99.90;;;;;;5099995;28;20204;-77
2024/02/27 03:09:40;;;;;;;21.87;11.40;;;2.40;99.90;;;;;;5100791;28;20225;-77
2024/02/27 03:12:07;;;;;;;22.23;11.93;;;2.30;99.90;;;;;;5102756;28;20293;-77
2024/02/27 03:14:34;;;;;;;21.30;10.87;;;2.30;99.90;;;;;;5095632;28;20284;-77
2024/02/27 03:17:01;;;;;;;22.37;11.37;;;2.30;99.90;;;;;;5096443;28;20503;-77
2024/02/27 03:19:28;;;;;;;27.23;12.27;;;2.30;99.90;;;;;;5102913;28;20256;-77
2024/02/27 03:21:55;;;;;;;22.93;11.57;;;2.40;99.90;;;;;;5102543;28;20205;-77
2024/02/27 03:24:22;;;;;;;22.40;11.43;;;2.60;99.90;;;;;;5100634;28;20683;-77
2024/02/27 03:26:50;;;;;;;23.57;12.17;;;2.70;99.90;;;;;;5097055;28;20206;-77
2024/02/27 03:29:17;;;;;;;26.93;13.77;;;2.80;99.90;;;;;;5097474;28;20225;-77
2024/02/27 03:31:44;;;;;;;26.10;13.27;;;2.80;99.90;;;;;;5098237;28;20248;-77
2024/02/27 03:34:10;;;;;;;28.23;13.77;;;2.80;99.90;;;;;;5101213;28;20695;-77
2024/02/27 03:36:40;;;;;;;27.23;13.07;;;2.90;99.90;;;;;;5103846;28;20213;-77
2024/02/27 03:39:07;;;;;;;29.00;14.60;;;2.70;99.90;;;;;;5101293;28;20225;-77
2024/02/27 03:41:34;;;;;;;30.70;14.67;;;2.70;99.90;;;;;;5100064;28;20563;-77
2024/02/27 03:44:03;;;;;;;30.63;15.03;;;2.70;99.90;;;;;;5099683;28;20240;-77
2024/02/27 03:46:29;;;;;;;29.43;13.73;;;2.70;99.90;;;;;;5098840;28;20716;-77
2024/02/27 03:48:56;;;;;;;28.63;13.00;;;2.60;99.90;;;;;;5099405;28;20221;-77
2024/02/27 03:51:23;;;;;;;29.37;12.90;;;2.60;99.90;;;;;;5103796;28;20311;-77
2024/02/27 03:53:50;;;;;;;30.33;15.03;;;2.60;99.90;;;;;;5103612;28;20202;-77
2024/02/27 03:56:17;;;;;;;27.90;14.20;;;2.60;99.90;;;;;;5100895;28;20426;-76
2024/02/27 03:58:44;;;;;;;31.17;14.67;;;2.50;99.90;;;;;;5098826;28;20259;-77
2024/02/27 04:01:16;;;;;;;33.93;16.43;;;2.50;99.90;;;;;;5106131;28;20604;-77
2024/02/27 04:03:43;;;;;;;32.70;15.77;;;2.50;99.90;;;;;;5105981;28;20202;-77
2024/02/27 04:06:11;;;;;;;33.37;15.87;;;2.50;99.90;;;;;;5109914;28;20201;-77
2024/02/27 04:08:38;;;;;;;31.47;15.07;;;2.50;99.90;;;;;;5105749;28;20222;-77
2024/02/27 04:11:05;;;;;;;35.50;16.63;;;2.50;99.90;;;;;;5103445;28;20734;-77
2024/02/27 04:13:32;;;;;;;35.27;15.90;;;2.50;99.90;;;;;;5104116;28;20289;-77
2024/02/27 04:15:59;;;;;;;33.47;15.43;;;2.50;99.90;;;;;;5099424;28;20561;-77
2024/02/27 04:18:27;;;;;;;34.17;15.53;;;2.50;99.90;;;;;;5098064;28;20212;-77
2024/02/27 04:20:54;;;;;;;29.67;14.87;;;2.50;99.90;;;;;;5098899;28;20308;-77
2024/02/27 04:23:21;;;;;;;33.93;15.80;;;2.60;99.90;;;;;;5105304;27;20288;-77
2024/02/27 04:25:47;;;;;;;34.40;15.73;;;2.60;99.90;;;;;;5100083;28;20205;-77
2024/02/27 04:28:14;;;;;;;32.23;15.40;;;2.60;99.90;;;;;;5098054;28;20683;-77
2024/02/27 04:30:41;;;;;;;30.10;15.60;;;2.60;99.90;;;;;;5107105;28;20256;-77
2024/02/27 04:33:08;;;;;;;30.13;14.90;;;2.60;99.90;;;;;;5104775;28;20591;-77
2024/02/27 04:35:36;;;;;;;30.50;15.03;;;2.60;99.90;;;;;;5108704;28;20201;-77
2024/02/27 04:38:03;;;;;;;32.03;15.33;;;2.60;99.90;;;;;;5106416;28;20711;-77
2024/02/27 04:40:30;;;;;;;33.43;16.00;;;2.60;99.90;;;;;;5105669;28;20252;-77
2024/02/27 04:42:57;;;;;;;32.00;15.20;;;2.60;99.90;;;;;;5106495;28;20257;-77
2024/02/27 04:45:24;;;;;;;32.60;15.73;;;2.60;99.90;;;;;;5107382;28;20209;-77
2024/02/27 04:47:51;;;;;;;34.87;16.37;;;2.60;99.90;;;;;;5105786;28;20206;-77
2024/02/27 04:50:18;;;;;;;32.43;14.30;;;2.70;99.90;;;;;;5110010;28;20247;-78
2024/02/27 04:52:46;;;;;;;31.90;15.87;;;2.70;99.90;;;;;;5104905;28;20202;-77
2024/02/27 04:55:13;;;;;;;33.70;15.43;;;2.70;99.90;;;;;;5109271;28;20232;-77
2024/02/27 04:57:40;;;;;;;30.10;14.97;;;2.70;99.90;;;;;;5109816;28;20228;-77
2024/02/27 05:00:09;;;;;;;29.93;14.50;;;2.70;99.90;;;;;;5108206;28;20666;-77
2024/02/27 05:02:36;;;;;;;30.97;14.87;;;2.80;99.90;;;;;;5114263;28;20261;-78
2024/02/27 05:05:03;;;;;;;31.27;14.73;;;2.80;99.90;;;;;;5111222;28;20229;-77
2024/02/27 05:07:31;;;;;;;35.07;16.63;;;2.80;99.90;;;;;;5111248;28;20205;-77
2024/02/27 05:09:59;;;;;;;33.37;15.13;;;2.80;99.90;;;;;;5106199;28;20236;-77
2024/02/27 05:12:26;;;;;;;32.53;15.93;;;2.80;99.90;;;;;;5107895;28;20236;-77
2024/02/27 05:14:53;;;;;;;28.80;14.20;;;2.90;99.90;;;;;;5103703;28;20269;-77
2024/02/27 05:17:20;;;;;;;29.27;14.70;;;2.90;99.90;;;;;;5106794;28;20509;-77
2024/02/27 05:19:47;;;;;;;31.70;16.07;;;2.90;99.90;;;;;;5102414;28;20315;-77
2024/02/27 05:22:13;;;;;;;32.03;15.50;;;2.90;99.90;;;;;;5101749;28;20273;-78
2024/02/27 05:24:40;;;;;;;30.13;15.43;;;2.90;99.90;;;;;;5107337;28;20293;-78
2024/02/27 05:27:08;;;;;;;29.80;14.93;;;2.90;99.90;;;;;;5104738;28;20214;-77
2024/02/27 05:29:35;;;;;;;29.23;14.57;;;2.90;99.90;;;;;;5107982;28;20317;-77
2024/02/27 05:32:02;;;;;;;29.10;14.33;;;2.90;99.90;;;;;;5105767;28;20651;-77
2024/02/27 05:34:29;;;;;;;30.97;15.03;;;2.90;99.90;;;;;;5104654;28;20220;-77
2024/02/27 05:36:56;;;;;;;30.70;14.27;;;3.00;99.90;;;;;;5115274;28;20738;-77
2024/02/27 05:39:23;;;;;;;30.67;14.30;;;3.00;99.90;;;;;;5109301;28;20293;-77
2024/02/27 05:41:51;;;;;;;30.73;14.90;;;3.00;99.90;;;;;;5105610;28;20561;-77
2024/02/27 05:44:19;;;;;;;30.53;15.10;;;3.00;99.90;;;;;;5112585;28;20248;-77
2024/02/27 05:46:46;;;;;;;32.00;14.83;;;3.00;99.90;;;;;;5111695;28;20284;-77
2024/02/27 05:49:13;;;;;;;29.43;14.40;;;3.00;99.90;;;;;;5114095;28;20694;-77
2024/02/27 05:51:41;;;;;;;28.27;13.73;;;3.20;99.90;;;;;;5111379;28;20212;-77
2024/02/27 05:54:08;;;;;;;31.33;16.07;;;3.00;99.90;;;;;;5112887;28;20209;-77
2024/02/27 05:56:35;;;;;;;33.53;15.30;;;3.10;99.90;;;;;;5111262;28;20209;-77
2024/02/27 05:59:04;;;;;;;33.17;14.93;;;2.80;99.90;;;;;;5113041;28;20217;-77
2024/02/27 06:01:32;;;;;;;32.37;14.97;;;3.10;99.90;;;;;;5113132;28;20201;-78
2024/02/27 06:03:59;;;;;;;28.70;13.73;;;3.10;99.90;;;;;;5109831;28;20292;-77
2024/02/27 06:06:25;;;;;;;31.67;14.37;;;3.10;99.90;;;;;;5111552;28;20299;-77
2024/02/27 06:08:52;;;;;;;28.47;14.70;;;3.10;99.90;;;;;;5105130;28;20708;-77
2024/02/27 06:11:19;;;;;;;31.43;14.40;;;3.20;99.90;;;;;;5100970;28;20218;-77
2024/02/27 06:13:46;;;;;;;28.93;14.50;;;3.20;99.90;;;;;;5106403;28;20278;-77
2024/02/27 06:16:13;;;;;;;28.20;14.10;;;3.10;99.90;;;;;;5101356;28;20210;-77
2024/02/27 06:18:42;;;;;;;27.00;13.97;;;3.20;99.90;;;;;;5101284;28;20292;-77
2024/02/27 06:23:54;;;;;;;31.60;15.93;;;3.20;99.90;;;;;;5104995;28;20261;-77
2024/02/27 06:26:21;;;;;;;30.90;14.17;;;3.20;99.90;;;;;;5100734;28;20216;-77
2024/02/27 06:28:48;;;;;;;28.03;13.03;;;3.30;99.90;;;;;;5108761;28;20268;-77
2024/02/27 06:31:15;;;;;;;28.23;14.10;;;3.30;99.90;;;;;;5099787;28;20218;-77
2024/02/27 06:33:43;;;;;;;29.73;13.97;;;3.30;99.90;;;;;;5105481;28;20297;-77
2024/02/27 06:36:11;;;;;;;25.77;11.87;;;3.30;99.90;;;;;;5106497;28;20553;-77
2024/02/27 06:38:38;;;;;;;28.27;13.30;;;3.30;99.90;;;;;;5107229;28;20301;-78
2024/02/27 06:41:05;;;;;;;28.70;13.27;;;3.30;99.90;;;;;;5101657;28;20282;-77
2024/02/27 06:43:32;;;;;;;31.47;13.60;;;3.30;99.90;;;;;;5107267;28;20244;-77
2024/02/27 06:45:59;;;;;;;28.50;13.40;;;3.40;99.90;;;;;;5111011;28;20202;-77
2024/02/27 06:48:28;;;;;;;28.90;14.03;;;3.40;99.90;;;;;;5112301;28;20205;-77
2024/02/27 06:50:57;;;;;;;29.47;12.83;;;3.40;99.90;;;;;;5113950;28;20217;-77
2024/02/27 06:53:23;;;;;;;28.27;14.23;;;3.40;99.90;;;;;;5114885;28;20357;-77
2024/02/27 06:55:51;;;;;;;28.93;13.90;;;3.50;99.90;;;;;;5111500;28;20305;-77
2024/02/27 06:58:18;;;;;;;26.77;12.63;;;3.70;99.90;;;;;;5114632;28;20260;-78
2024/02/27 07:00:44;;;;;;;27.23;12.93;;;3.40;99.90;;;;;;5115639;28;20640;-78
2024/02/27 07:03:13;;;;;;;29.60;13.60;;;3.50;99.90;;;;;;5115632;28;20291;-77
2024/02/27 07:05:39;;;;;;;27.23;13.77;;;3.50;99.90;;;;;;5112853;28;20326;-77
2024/02/27 07:08:09;;;;;;;31.03;13.40;;;3.50;99.90;;;;;;5113419;28;20230;-77
2024/02/27 07:10:36;;;;;;;29.10;13.90;;;3.50;99.90;;;;;;5105054;28;20664;-77
2024/02/27 07:13:05;;;;;;;25.53;11.67;;;3.60;99.90;;;;;;5103970;28;20241;-77
2024/02/27 07:15:32;;;;;;;26.40;12.77;;;3.60;99.90;;;;;;5103269;28;20578;-77
2024/02/27 07:17:59;;;;;;;28.53;13.63;;;3.60;99.90;;;;;;5103466;28;20730;-77
2024/02/27 07:20:26;;;;;;;26.57;12.53;;;3.70;99.90;;;;;;5102520;28;20246;-77
2024/02/27 07:22:53;;;;;;;26.83;12.67;;;3.70;99.90;;;;;;5101885;28;20296;-78
2024/02/27 07:25:21;;;;;;;28.83;13.73;;;3.70;99.90;;;;;;5103353;28;20683;-77
2024/02/27 07:27:49;;;;;;;28.27;13.90;;;3.80;99.90;;;;;;5103120;28;20225;-77
2024/02/27 07:30:18;;;;;;;26.20;12.60;;;4.20;99.90;;;;;;5105073;28;20217;-77
2024/02/27 07:32:45;;;;;;;27.50;14.27;;;3.80;99.90;;;;;;5111396;28;20218;-77
2024/02/27 07:35:12;;;;;;;25.10;12.53;;;3.90;99.90;;;;;;5112485;28;20236;-77
2024/02/27 07:37:40;;;;;;;31.53;14.17;;;3.90;99.90;;;;;;5105383;28;20237;-77
2024/02/27 07:40:08;;;;;;;30.00;13.73;;;3.90;99.90;;;;;;5111480;28;20245;-77
2024/02/27 07:42:36;;;;;;;26.13;12.13;;;4.00;99.90;;;;;;5104545;28;20295;-78
2024/02/27 07:45:03;;;;;;;27.20;12.83;;;3.90;99.90;;;;;;5100233;28;20640;-77
2024/02/27 07:47:30;;;;;;;24.33;11.50;;;3.90;99.90;;;;;;5105705;28;20211;-76
2024/02/27 07:49:57;;;;;;;26.80;13.03;;;4.10;99.90;;;;;;5115694;28;20222;-78
2024/02/27 07:52:24;;;;;;;25.07;11.93;;;4.10;99.90;;;;;;5114684;28;20238;-78
2024/02/27 07:54:51;;;;;;;24.07;11.40;;;4.10;99.90;;;;;;5114092;28;20273;-78
2024/02/27 07:57:17;;;;;;;25.10;12.20;;;4.10;99.90;;;;;;5114929;28;20201;-77
2024/02/27 07:59:46;;;;;;;26.07;12.20;;;4.30;99.90;;;;;;5112390;28;20316;-77
2024/02/27 08:02:12;;;;;;;25.87;13.20;;;4.10;99.90;;;;;;5114208;28;20288;-77
2024/02/27 08:04:39;;;;;;;24.80;12.00;;;4.20;99.90;;;;;;5114376;28;20208;-77
2024/02/27 08:07:06;;;;;;;28.70;13.40;;;4.20;99.90;;;;;;5115419;28;20202;-77
2024/02/27 08:09:33;;;;;;;28.73;12.97;;;4.20;99.90;;;;;;5102769;28;20379;-77
2024/02/27 08:12:00;;;;;;;27.50;12.23;;;4.40;99.90;;;;;;5102918;28;20634;-77
2024/02/27 08:14:29;;;;;;;27.53;13.10;;;4.40;99.90;;;;;;5098766;28;20215;-77
2024/02/27 08:17:00;;;;;;;26.53;11.77;;;4.40;99.90;;;;;;5100418;28;20254;-77
2024/02/27 08:19:27;;;;;;;26.70;12.73;;;4.40;1.00;;;;;;5098624;28;20233;-78
2024/02/27 08:21:56;;;;;;;28.07;13.83;;;4.40;1.00;;;;;;5101388;28;20623;-78
2024/02/27 08:24:23;;;;;;;25.10;13.03;;;4.40;1.00;;;;;;5100904;28;20536;-77
2024/02/27 08:26:50;;;;;;;24.77;11.37;;;4.50;1.00;;;;;;5100044;28;20289;-78
2024/02/27 08:29:17;;;;;;;25.47;12.87;;;4.40;1.00;;;;;;5104785;28;20292;-78
2024/02/27 08:31:44;;;;;;;25.43;12.93;;;4.50;99.90;;;;;;5106372;28;20231;-77
2024/02/27 08:34:12;;;;;;;25.07;12.17;;;4.50;99.90;;;;;;5108555;28;20200;-77
2024/02/27 08:36:38;;;;;;;23.87;11.00;;;4.50;31.00;;;;;;5098323;28;20285;-77
2024/02/27 08:39:05;;;;;;;22.43;11.10;;;4.60;1.00;;;;;;5105832;28;20229;-77
2024/02/27 08:41:33;;;;;;;25.70;11.97;;;4.60;99.90;;;;;;5097924;28;20566;-78
2024/02/27 08:44:00;;;;;;;27.43;12.80;;;4.60;99.90;;;;;;5097169;28;20248;-77
2024/02/27 08:46:29;;;;;;;26.03;11.93;;;4.60;1.00;;;;;;5103780;28;20706;-77
2024/02/27 08:48:57;;;;;;;24.10;11.57;;;4.60;1.00;;;;;;5113129;28;20236;-78
2024/02/27 08:51:25;;;;;;;27.83;12.23;;;4.50;75.30;;;;;;5107039;28;20246;-77
2024/02/27 08:53:52;;;;;;;26.27;12.13;;;4.70;99.90;;;;;;5099600;28;20216;-77
2024/02/27 08:56:19;;;;;;;28.17;12.10;;;4.70;1.00;;;;;;5113197;28;20272;-77
2024/02/27 08:58:45;;;;;;;25.30;11.73;;;4.80;1.00;;;;;;5110351;28;20291;-77
2024/02/27 09:01:13;;;;;;;24.90;11.90;;;4.80;1.00;;;;;;5114398;28;20204;-77
2024/02/27 09:03:41;;;;;;;25.50;11.57;;;4.90;99.90;;;;;;5112607;28;20219;-77
2024/02/27 09:06:09;;;;;;;24.80;11.47;;;4.90;1.00;;;;;;5114389;28;20244;-77
2024/02/27 09:08:37;;;;;;;26.63;13.13;;;4.90;1.00;;;;;;5115032;28;20236;-77
2024/02/27 09:11:04;;;;;;;25.63;12.63;;;4.90;99.90;;;;;;5099807;28;20273;-77
2024/02/27 09:13:31;;;;;;;26.80;13.03;;;5.00;99.90;;;;;;5098651;28;20265;-77
2024/02/27 09:15:58;;;;;;;26.33;13.17;;;4.90;99.90;;;;;;5104604;28;22696;-77
2024/02/27 09:18:25;;;;;;;24.20;11.83;;;5.00;1.00;;;;;;5101234;28;20284;-77
2024/02/27 09:20:52;;;;;;;25.17;11.87;;;5.00;1.00;;;;;;5100162;28;20729;-78
2024/02/27 09:23:19;;;;;;;24.83;12.37;;;5.00;1.00;;;;;;5101611;28;20292;-77
2024/02/27 09:25:47;;;;;;;22.10;11.20;;;5.00;99.90;;;;;;5103785;28;20237;-77
2024/02/27 09:28:14;;;;;;;24.63;12.03;;;5.20;99.90;;;;;;5099558;28;20274;-76
2024/02/27 09:30:41;;;;;;;30.60;12.97;;;5.00;99.90;;;;;;5101123;28;20225;-77
2024/02/27 09:33:08;;;;;;;25.80;13.70;;;5.10;1.00;;;;;;5103285;28;20217;-77
2024/02/27 09:35:35;;;;;;;28.17;12.67;;;5.30;99.90;;;;;;5106718;28;20229;-77
2024/02/27 09:38:02;;;;;;;25.97;12.83;;;5.30;24.00;;;;;;5102502;28;20228;-78
2024/02/27 09:40:29;;;;;;;24.60;11.37;;;5.30;99.90;;;;;;5101954;28;20230;-78
2024/02/27 09:43:02;;;;;;;25.40;13.03;;;5.40;1.00;;;;;;5108887;28;20254;-78
2024/02/27 09:45:30;;;;;;;25.70;12.40;;;5.50;1.00;;;;;;5104318;28;20588;-77
2024/02/27 09:47:58;;;;;;;27.50;14.07;;;5.30;1.00;;;;;;5112788;28;20213;-77
2024/02/27 09:50:27;;;;;;;24.10;11.97;;;5.40;1.00;;;;;;5109999;28;20292;-77
2024/02/27 09:52:55;;;;;;;25.40;12.70;;;5.30;1.00;;;;;;5108665;28;20739;-77
2024/02/27 09:55:23;;;;;;;28.90;12.63;;;5.30;1.00;;;;;;5102281;28;20667;-78
2024/02/27 09:57:50;;;;;;;24.93;12.87;;;5.40;1.00;;;;;;5115604;28;20329;-77
2024/02/27 10:00:19;;;;;;;25.97;13.30;;;5.40;1.00;;;;;;5114272;28;20221;-78
2024/02/27 10:02:48;;;;;;;27.87;12.30;;;5.30;1.00;;;;;;5107589;28;20201;-77
2024/02/27 10:05:17;;;;;;;27.93;13.80;;;5.50;1.00;;;;;;5111268;28;20205;-77
2024/02/27 10:07:48;;;;;;;24.50;12.97;;;5.50;1.00;;;;;;5119366;27;20232;-77
2024/02/27 10:10:16;;;;;;;24.97;13.10;;;5.60;99.90;;;;;;5110122;28;20231;-78
2024/02/27 10:12:42;;;;;;;26.53;13.33;;;5.70;99.90;;;;;;5103023;28;20422;-78
2024/02/27 10:15:10;;;;;;;26.43;13.77;;;5.60;99.90;;;;;;5109123;28;20298;-78
2024/02/27 10:17:39;;;;;;;27.13;12.10;;;5.60;99.90;;;;;;5101911;28;20214;-78
2024/02/27 10:20:10;;;;;;;22.53;12.13;;;5.60;1.00;;;;;;5100594;28;20249;-78
2024/02/27 10:22:38;;;;;;;24.63;12.10;;;5.60;1.00;;;;;;5102134;28;20615;-77
2024/02/27 10:25:06;;;;;;;26.20;12.23;;;5.60;1.00;;;;;;5101429;28;20228;-77
2024/02/27 10:27:35;;;;;;;24.17;13.00;;;5.70;1.00;;;;;;5101413;28;20202;-77
2024/02/27 10:30:03;;;;;;;25.33;13.30;;;5.80;1.00;;;;;;5102276;28;20312;-77
2024/02/27 10:32:32;;;;;;;24.10;12.93;;;5.90;1.00;;;;;;5100719;28;20222;-78
2024/02/27 10:35:03;;;;;;;24.67;13.07;;;5.90;1.00;;;;;;5105125;28;20206;-78
2024/02/27 10:37:31;;;;;;;22.10;10.97;;;5.90;1.00;;;;;;5106106;28;21632;-78
2024/02/27 10:39:59;;;;;;;23.70;12.73;;;5.80;1.00;;;;;;5101207;28;20247;-78
2024/02/27 10:42:27;;;;;;;22.20;11.60;;;5.90;1.00;;;;;;5104492;28;20205;-77
2024/02/27 10:44:54;;;;;;;24.60;11.37;;;5.90;99.90;;;;;;5100830;28;20205;-77
2024/02/27 10:47:22;;;;;;;22.47;11.60;;;5.70;99.90;;;;;;5109156;28;20273;-78
2024/02/27 10:49:49;;;;;;;24.47;12.53;;;5.80;99.90;;;;;;5100465;28;20247;-78
2024/02/27 10:52:19;;;;;;;22.63;11.17;;;5.70;99.90;;;;;;5105421;28;20252;-77
2024/02/27 10:54:46;;;;;;;23.33;12.00;;;5.80;99.90;;;;;;5105228;28;20241;-77
2024/02/27 10:57:14;;;;;;;24.93;12.70;;;5.90;99.90;;;;;;5106118;28;20265;-77
2024/02/27 10:59:44;;;;;;;23.20;12.37;;;5.90;99.90;;;;;;5113115;28;20229;-77
2024/02/27 11:02:16;;;;;;;24.47;11.93;;;6.00;99.20;;;;;;5113057;28;20198;-77
2024/02/27 11:04:45;;;;;;;22.97;12.67;;;5.90;99.90;;;;;;5108361;28;20801;-78
2024/02/27 11:07:14;;;;;;;23.23;12.20;;;6.00;99.90;;;;;;5104948;28;20201;-78
2024/02/27 11:09:44;;;;;;;22.77;11.40;;;6.00;99.90;;;;;;5111113;28;20225;-78
2024/02/27 11:12:14;;;;;;;22.23;11.80;;;6.10;44.10;;;;;;5107703;28;20280;-77
2024/02/27 11:14:43;;;;;;;22.57;11.43;;;6.00;47.00;;;;;;5106609;28;20664;-78
2024/02/27 11:17:14;;;;;;;22.57;11.10;;;6.00;1.00;;;;;;5100080;28;20220;-77
2024/02/27 11:19:47;;;;;;;21.47;10.00;;;6.00;1.00;;;;;;5097961;28;20257;-78
2024/02/27 11:22:14;;;;;;;24.47;11.83;;;5.90;1.00;;;;;;5100520;28;20257;-77
2024/02/27 11:24:43;;;;;;;23.70;11.63;;;5.90;1.00;;;;;;5100889;28;20217;-77
2024/02/27 11:27:10;;;;;;;24.70;11.17;;;6.00;1.00;;;;;;5100026;28;20280;-78
2024/02/27 11:29:37;;;;;;;22.07;11.00;;;6.00;1.00;;;;;;5101641;28;20257;-78
2024/02/27 11:32:05;;;;;;;22.83;11.20;;;6.10;1.00;;;;;;5102287;28;20316;-77
2024/02/27 11:34:34;;;;;;;23.67;10.57;;;6.10;1.00;;;;;;5098508;28;20211;-77
2024/02/27 11:37:14;;;;;;;22.40;11.43;;;6.10;1.00;;;;;;5100263;28;20828;-77
2024/02/27 11:39:41;;;;;;;24.07;12.07;;;6.10;1.00;;;;;;5106426;28;20265;-78
2024/02/27 11:42:21;;;;;;;21.70;11.50;;;6.20;1.60;;;;;;5101312;28;20329;-78
2024/02/27 11:45:05;;;;;;;23.13;12.00;;;6.10;1.00;;;;;;5107861;28;20559;-77
2024/02/27 11:47:37;;;;;;;24.07;12.63;;;6.10;1.00;;;;;;5105409;28;20215;-78
2024/02/27 11:50:06;;;;;;;21.20;11.27;;;6.30;1.00;;;;;;5106445;28;20221;-78
2024/02/27 11:52:34;;;;;;;22.03;10.80;;;6.30;1.00;;;;;;5105961;28;20221;-77
2024/02/27 11:55:08;;;;;;;21.43;10.83;;;6.20;1.00;;;;;;5100581;28;20210;-77
2024/02/27 11:57:37;;;;;;;22.00;10.93;;;6.10;1.00;;;;;;5105978;28;20647;-77
2024/02/27 12:00:07;;;;;;;22.10;11.30;;;6.10;1.00;;;;;;5106174;28;20311;-78
2024/02/27 12:02:36;;;;;;;23.70;11.57;;;6.10;1.00;;;;;;5107326;28;20658;-78
2024/02/27 12:05:04;;;;;;;23.10;11.70;;;6.20;1.00;;;;;;5109728;28;20250;-78
2024/02/27 12:07:31;;;;;;;21.93;11.13;;;6.30;1.00;;;;;;5106107;27;20225;-78
2024/02/27 12:10:08;;;;;;;22.27;11.43;;;6.30;1.00;;;;;;5100071;28;20715;-77
2024/02/27 12:12:37;;;;;;;24.20;12.07;;;6.20;1.00;;;;;;5100948;28;20228;-78
2024/02/27 12:15:05;;;;;;;23.30;12.33;;;6.30;1.00;;;;;;5114596;28;20205;-78
2024/02/27 12:17:32;;;;;;;23.80;13.30;;;6.30;1.00;;;;;;5099609;28;20205;-78
2024/02/27 12:20:00;;;;;;;21.57;11.70;;;6.30;1.00;;;;;;5108097;28;20226;-78
2024/02/27 12:22:27;;;;;;;21.40;11.73;;;6.20;1.00;;;;;;5100902;28;20205;-77
2024/02/27 12:24:56;;;;;;;22.87;12.90;;;6.20;1.00;;;;;;5100689;28;20237;-77
2024/02/27 12:27:24;;;;;;;23.20;12.43;;;6.30;1.00;;;;;;5101817;28;20686;-77
2024/02/27 12:29:52;;;;;;;22.43;12.40;;;6.20;1.00;;;;;;5101701;28;20245;-77
2024/02/27 12:32:20;;;;;;;23.57;12.43;;;6.20;1.00;;;;;;5101189;28;20289;-77
2024/02/27 12:34:47;;;;;;;23.00;12.27;;;6.20;1.00;;;;;;5103110;28;20280;-78
2024/02/27 12:37:17;;;;;;;24.27;12.60;;;6.20;1.00;;;;;;5103424;28;20289;-77
2024/02/27 12:39:45;;;;;;;19.27;10.70;;;6.20;1.00;;;;;;5100890;28;20221;-78
2024/02/27 12:42:12;;;;;;;20.23;9.93;;;6.30;1.00;;;;;;5103690;28;20240;-78
2024/02/27 12:44:46;;;;;;;24.17;12.33;;;6.10;1.00;;;;;;5103597;28;20273;-77